Georges Bank 170 Nm East Of Hyannis, Ma (44011) Wave Buoy

5:50pm - Wed 25th Nov 2015 All times are EST. -5 hours from GMT.

  • Sig Wave height 2.6ft
  • Swell Direction
  • Peak Period 10s
  • Average Period 5s
  • Wind
    9mph, 11mph gusts
  • Sea Temp 53°f
  • Air Temp 46°f
  • Sea Pressure 1045mb
  • Georges Bank 170 Nm East Of Hyannis, Ma
  • Georges Bank 170 Nm East Of Hyannis, Ma

More Historic Weather Station data

Upgrade to MSW Pro to gain access to the past 30 days of data for over 8000 Wavebouys and Weather Stations around the globe.

Join Pro

Comparision Forecast

View Surf forecast
Wed 11/25 5:50pm 2.5ft 10s 5s 9 11 mph 1045mb 53f 46f
4:50pm 3ft 10s 5s 9 11 mph 1044.2mb 53f 46f
3:50pm 3.5ft 10s 5s 9 13 mph 1043.6mb 53f 46f
2:50pm 3ft 5s 5s 9 13 mph 1042.8mb 53f 46f
1:50pm 3.5ft 11s 5s 9 13 mph 1042.3mb 53f 47f
12:50pm 3.5ft 5s 5s 9 11 mph 1042mb 53f 46f
11:50am 3.5ft 6s 5s 7 11 mph 1041.7mb 53f 46f
9:50am 3.5ft 10s 6s 9 13 mph 1041.2mb 52f 45f
8:50am 3.5ft 7s 6s 7 9 mph 1040.2mb 52f 45f
7:50am 3.5ft 6s 5s 7 11 mph 1039.3mb 52f 42f
6:50am 4ft 7s 6s 11 16 mph 1037.9mb 52f 43f
5:50am 4.5ft 7s 6s 9 11 mph 1036.7mb 52f 44f
4:50am 4.5ft 7s 5s 9 11 mph 1035.6mb 52f 44f
3:50am 5ft 6s 5s 18 25 mph 1034.5mb 52f 44f
2:50am 5.5ft 6s 5s 16 20 mph 1033.9mb 52f 44f
1:50am 6.5ft 6s 5s 22 27 mph 1033.2mb 52f 43f
12:50am 6.5ft 7s 5s 20 25 mph 1032.4mb 52f 44f
Tue 11/24 11:50pm 7ft 7s 6s 20 25 mph 1032mb 52f 44f
10:50pm 6.5ft 7s 6s 16 20 mph 1031.6mb 52f 44f
9:50pm 7ft 8s 6s 18 22 mph 1031mb 52f 44f
8:50pm 6.5ft 8s 6s 16 22 mph 1030.1mb 52f 45f
7:50pm 7ft 8s 6s 16 20 mph 1029.5mb 52f 43f
6:50pm 6.5ft 8s 6s 20 25 mph 1028.5mb 52f 44f
5:50pm 7ft 8s 6s 18 22 mph 1027.7mb 52f 44f
4:50pm 7ft 7s 6s 18 25 mph 1026.6mb 52f 44f
3:50pm 7.5ft 8s 6s 18 25 mph 1025.8mb 52f 44f
2:50pm 8ft 10s 6s 16 22 mph 1025.1mb 52f 43f
1:50pm 8ft 7s 6s 16 22 mph 1024.7mb 52f 42f
12:50pm 9ft 7s 6s 22 27 mph 1024.1mb 52f 42f
11:50am 8ft 10s 6s 20 27 mph 1023.8mb 52f 42f
10:50am 9.5ft 8s 6s 22 27 mph 1023.7mb 52f 42f
9:50am 9.5ft 11s 7s 20 29 mph 1023.4mb 52f 42f
8:50am 9ft 11s 7s 22 27 mph 1022.4mb 52f 43f
7:50am 10ft 10s 7s 22 29 mph 1021.3mb 52f 43f
6:50am 10ft 11s 7s 25 29 mph 1020.4mb 52f 43f
5:50am 10.5ft 11s 7s 20 27 mph 1019.5mb 52f 43f
4:50am 10.5ft 11s 7s 20 27 mph 1018.2mb 52f 44f
3:50am 12ft 11s 8s 20 25 mph 1017.5mb 52f 44f
2:50am 12ft 11s 7s 22 29 mph 1016.8mb 52f 44f
1:50am 13ft 12s 7s 25 29 mph 1016.2mb 52f 46f
12:50am 14ft 11s 8s 25 31 mph 1015.3mb 52f 46f
Mon 11/23 11:50pm 15ft 11s 8s 22 31 mph 1014.8mb 52f 45f
10:50pm 13.5ft 9s 7s 20 27 mph 1014.5mb 53f 46f
9:50pm 16ft 11s 8s 27 34 mph 1013.7mb 53f 47f
8:50pm 15ft 11s 8s 27 34 mph 1012.8mb 53f 47f
7:50pm 14.5ft 12s 8s 27 34 mph 1012mb 53f 46f
6:50pm 15ft 11s 9s 25 31 mph 1011mb 53f 47f
5:50pm 15.5ft 11s 9s 22 27 mph 1009.9mb 53f 48f
4:50pm 15.5ft 12s 9s 22 29 mph 1008.3mb 53f 48f
3:50pm 18ft 12s 9s 25 34 mph 1006.8mb 54f 48f
2:50pm 17ft 12s 9s 27 34 mph 1005.4mb 54f 49f
1:50pm 16ft 13s 8s 27 36 mph 1003.5mb 54f 48f
12:50pm 17ft 12s 8s 29 38 mph 1002mb 54f 49f
11:50am 16.5ft 12s 8s 27 31 mph 1002.1mb 54f 49f
10:50am 18ft 12s 9s 25 31 mph 1002.8mb 54f 50f
9:50am 15.5ft 11s 8s 25 34 mph 1003.1mb 55f 51f
8:50am 15ft 11s 8s 22 31 mph 1001.7mb 55f 53f
7:50am 19ft 11s 9s 20 29 mph 1000.7mb 55f 55f
6:50am 19.5ft 11s 8s 13 16 mph 1000.4mb 55f 58f
5:50am 16.5ft 10s 8s 34 40 mph 1000.2mb 55f 59f
4:50am 18ft 10s 8s 31 38 mph 999.5mb 55f 65f
3:50am 16ft 10s 8s 36 43 mph 1000.1mb 55f 65f
2:50am 15ft 10s 8s 29 36 mph 1001.5mb 55f 66f
1:50am 14.5ft 10s 8s 31 38 mph 1003.1mb 55f 66f
12:50am 15.5ft 10s 8s 29 34 mph 1004.5mb 55f 65f
Sun 11/22 11:50pm 15ft 10s 8s 25 31 mph 1005.8mb 55f 65f
10:50pm 13ft 10s 8s 27 34 mph 1006.6mb 55f 64f
9:50pm 12ft 10s 7s 29 34 mph 1007.6mb 55f 64f
8:50pm 10.5ft 9s 8s 25 27 mph 1009mb 55f 64f
7:50pm 12ft 11s 7s 18 22 mph 1010mb 55f 62f
6:50pm 12ft 9s 7s 20 22 mph 1010.5mb 55f 60f
5:50pm 13ft 9s 8s 20 22 mph 1011.6mb 55f 60f
4:50pm 13ft 9s 7s 25 29 mph 1011.3mb 55f 61f
3:50pm 12ft 9s 7s 25 29 mph 1010.9mb 54f 62f
2:50pm 10ft 9s 7s 25 31 mph 1011mb 54f 62f
1:50pm 10ft 9s 8s 11 16 mph 1011.8mb 54f 57f
12:50pm 10.5ft 9s 8s 9 11 mph 1012.7mb 54f 56f
11:50am 10ft 9s 8s 7 9 mph 1014.1mb 54f 56f
10:50am 9.5ft 11s 8s 9 11 mph 1015.3mb 54f 55f
9:50am 9.5ft 11s 8s 7 9 mph 1016.3mb 54f 55f
8:50am 9ft 8s 7s 4 7 mph 1017mb 54f 54f
7:50am 10ft 11s 8s 7 9 mph 1016.4mb 54f 55f
6:50am 10ft 10s 8s 7 9 mph 1016.5mb 54f 54f
5:50am 9ft 8s 7s 4 7 mph 1016mb 54f 54f
4:50am 10.5ft 8s 8s  -  4 mph 1015.4mb 54f 54f
3:50am 9ft 11s 8s 13 18 mph 1015.5mb 53f 54f
2:50am 8.5ft 8s 7s 13 18 mph 1015mb 53f 54f
1:50am 8.5ft 8s 7s 9 11 mph 1014.9mb 53f 53f
12:50am 8ft 8s 7s 4 9 mph 1014.6mb 53f 52f
Sat 11/21 11:50pm 8.5ft 10s 7s 2 7 mph 1014.8mb 53f 53f